Time;durP1;ratioP1;P1;durP2;ratioP2;P2;SDS_P1;SDS_P2;PMS_P1;PMS_P2;Temp;Humidity;BMP_temperature;BMP_pressure;BME280_temperature;BME280_humidity;BME280_pressure;Samples;Min_cycle;Max_cycle;Signal;HPM_P1;HPM_P2
2020/12/14 00:02:02;;;;;;;32.72;20.17;;;;;;;3.26;100.00;100380.81;5268684;28;20073;-81
2020/12/14 00:04:32;;;;;;;37.90;21.60;;;;;;;3.20;100.00;100374.84;5274279;28;20428;-81
2020/12/14 00:07:04;;;;;;;35.80;21.25;;;;;;;3.22;100.00;100371.38;5270793;28;20034;-80
2020/12/14 00:09:34;;;;;;;31.63;20.77;;;;;;;3.24;100.00;100363.63;5271217;28;20024;-82
2020/12/14 00:12:04;;;;;;;36.85;20.77;;;;;;;3.23;100.00;100346.41;5271206;28;20107;-81
2020/12/14 00:14:35;;;;;;;31.88;19.55;;;;;;;3.13;100.00;100335.31;5270807;28;20076;-80
2020/12/14 00:17:05;;;;;;;35.38;21.40;;;;;;;3.16;100.00;100319.81;5269956;28;20051;-80
2020/12/14 00:19:35;;;;;;;33.25;21.23;;;;;;;3.28;100.00;100316.25;5270333;28;20019;-80
2020/12/14 00:22:06;;;;;;;30.88;19.60;;;;;;;3.34;100.00;100314.44;5271649;28;20047;-80
2020/12/14 00:24:36;;;;;;;33.83;20.13;;;;;;;3.39;100.00;100306.66;5272370;28;20042;-81
2020/12/14 00:27:07;;;;;;;32.35;19.73;;;;;;;3.34;100.00;100313.63;5264915;28;20024;-80
2020/12/14 00:29:37;;;;;;;32.33;20.17;;;;;;;3.27;100.00;100312.81;5274140;28;20020;-80
2020/12/14 00:32:07;;;;;;;31.42;19.52;;;;;;;3.31;100.00;100318.78;5274970;28;20028;-82
2020/12/14 00:34:37;;;;;;;29.95;18.50;;;;;;;3.38;100.00;100331.63;5268609;28;20040;-81
2020/12/14 00:37:08;;;;;;;27.75;18.65;;;;;;;3.42;100.00;100337.59;5267164;28;20035;-81
2020/12/14 00:39:38;;;;;;;32.88;20.00;;;;;;;3.51;100.00;100353.03;5268115;28;20032;-81
2020/12/14 00:42:08;;;;;;;31.00;19.00;;;;;;;3.54;100.00;100356.41;5268120;28;20024;-80
2020/12/14 00:44:39;;;;;;;30.95;18.30;;;;;;;3.58;100.00;100358.09;5267635;28;20016;-81
2020/12/14 00:47:09;;;;;;;28.95;17.95;;;;;;;3.57;100.00;100361.53;5266724;28;20035;-82
2020/12/14 00:49:39;;;;;;;28.08;17.27;;;;;;;3.63;100.00;100362.31;5268889;28;20027;-81
2020/12/14 00:52:09;;;;;;;26.77;17.42;;;;;;;3.67;100.00;100361.44;5269239;28;20059;-80
2020/12/14 00:54:40;;;;;;;26.98;17.08;;;;;;;3.63;100.00;100364.91;5269052;28;20050;-80
2020/12/14 00:57:10;;;;;;;27.73;17.40;;;;;;;3.63;100.00;100369.22;5262240;28;20032;-80
2020/12/14 00:59:40;;;;;;;26.50;17.70;;;;;;;3.62;100.00;100368.38;5268301;28;20030;-80
2020/12/14 01:02:11;;;;;;;29.92;17.50;;;;;;;3.63;100.00;100369.22;5270065;28;20045;-80
2020/12/14 01:04:41;;;;;;;26.17;16.75;;;;;;;3.62;100.00;100372.69;5270089;28;20099;-80
2020/12/14 01:07:11;;;;;;;27.52;17.20;;;;;;;3.42;100.00;100378.94;5270214;28;20024;-80
2020/12/14 01:09:41;;;;;;;27.45;17.45;;;;;;;3.44;100.00;100385.81;5270479;28;20466;-80
2020/12/14 01:12:12;;;;;;;27.88;17.33;;;;;;;3.48;100.00;100384.03;5262055;28;20415;-82
2020/12/14 01:14:42;;;;;;;25.00;16.38;;;;;;;3.48;100.00;100394.34;5261273;28;20482;-81
2020/12/14 01:17:12;;;;;;;26.05;17.23;;;;;;;3.34;100.00;100394.50;5267374;28;20381;-80
2020/12/14 01:19:43;;;;;;;26.80;17.35;;;;;;;3.31;100.00;100396.25;5266667;28;20377;-81
2020/12/14 01:22:13;;;;;;;27.98;17.15;;;;;;;3.31;100.00;100398.81;5267543;28;20020;-81
2020/12/14 01:24:43;;;;;;;26.10;17.08;;;;;;;3.27;100.00;100389.41;5266541;28;20408;-81
2020/12/14 01:27:13;;;;;;;27.40;17.45;;;;;;;3.23;100.00;100388.56;5268493;28;20034;-80
2020/12/14 01:29:44;;;;;;;24.25;16.73;;;;;;;3.36;100.00;100384.16;5268169;28;20031;-81
2020/12/14 01:32:14;;;;;;;25.98;16.60;;;;;;;3.17;100.00;100377.47;5267487;28;20083;-80
2020/12/14 01:34:44;;;;;;;26.55;16.80;;;;;;;3.17;100.00;100372.31;5268993;28;20027;-80
2020/12/14 01:37:14;;;;;;;30.80;18.35;;;;;;;3.13;100.00;100368.00;5269787;28;20028;-81
2020/12/14 01:39:45;;;;;;;28.63;17.65;;;;;;;3.16;100.00;100358.53;5263044;28;20020;-81
2020/12/14 01:42:15;;;;;;;26.45;17.58;;;;;;;3.13;100.00;100360.28;5259409;28;20045;-80
2020/12/14 01:44:45;;;;;;;27.08;17.88;;;;;;;3.21;100.00;100348.16;5265378;28;20481;-80
2020/12/14 01:47:35;;;;;;;27.02;17.27;;;;;;;3.26;100.00;100336.06;5265631;28;20024;-80
2020/12/14 01:50:06;;;;;;;27.27;17.20;;;;;;;3.32;100.00;100351.47;5264475;28;20398;-80
2020/12/14 01:52:41;;;;;;;28.83;17.23;;;;;;;3.38;100.00;100330.78;5264890;28;20043;-80
2020/12/14 01:55:18;;;;;;;27.30;17.48;;;;;;;3.40;100.00;100340.19;5265431;28;20665;-80
2020/12/14 01:57:48;;;;;;;25.58;17.15;;;;;;;3.38;100.00;100335.94;5263755;28;20500;-80
2020/12/14 02:00:18;;;;;;;23.67;16.15;;;;;;;3.42;100.00;100327.28;5263988;28;20020;-80
2020/12/14 02:02:49;;;;;;;26.00;16.25;;;;;;;3.45;100.00;100328.13;5263161;28;20016;-81
2020/12/14 02:05:19;;;;;;;27.45;16.13;;;;;;;3.52;100.00;100323.72;5265357;28;20484;-80
2020/12/14 02:07:49;;;;;;;25.70;15.18;;;;;;;3.61;100.00;100324.47;5266300;28;20058;-80
2020/12/14 02:10:19;;;;;;;25.00;15.57;;;;;;;3.62;100.00;100324.44;5266493;28;20039;-80
2020/12/14 02:12:50;;;;;;;24.80;14.60;;;;;;;3.58;100.00;100324.53;5259123;28;20023;-81
2020/12/14 02:15:20;;;;;;;25.73;14.88;;;;;;;3.65;100.00;100327.00;5265142;28;20035;-80
2020/12/14 02:17:50;;;;;;;22.65;14.68;;;;;;;3.74;100.00;100320.84;5262719;28;21794;-80
2020/12/14 02:20:21;;;;;;;22.60;14.07;;;;;;;3.79;100.00;100322.50;5265142;28;20021;-79
2020/12/14 02:22:51;;;;;;;20.08;13.15;;;;;;;3.80;100.00;100311.28;5265171;28;20032;-79
2020/12/14 02:25:21;;;;;;;20.80;13.18;;;;;;;3.83;100.00;100315.59;5264476;28;20074;-79
2020/12/14 02:27:52;;;;;;;19.77;13.02;;;;;;;3.85;100.00;100319.00;5265176;28;20020;-79
2020/12/14 02:30:22;;;;;;;19.40;12.80;;;;;;;3.83;100.00;100313.88;5264566;28;20020;-81
2020/12/14 02:32:52;;;;;;;19.45;12.25;;;;;;;3.76;100.00;100309.63;5264430;28;20024;-81
2020/12/14 02:35:23;;;;;;;17.58;11.60;;;;;;;3.74;100.00;100316.56;5264694;28;20066;-82
2020/12/14 02:37:53;;;;;;;21.20;12.60;;;;;;;3.72;100.00;100315.72;5264677;28;20028;-81
2020/12/14 02:40:23;;;;;;;19.45;11.68;;;;;;;3.76;100.00;100314.81;5264973;28;20490;-80
2020/12/14 02:42:53;;;;;;;18.30;11.70;;;;;;;3.67;100.00;100307.19;5264478;28;20031;-86
2020/12/14 02:45:24;;;;;;;18.08;11.73;;;;;;;3.71;100.00;100311.44;5264637;28;20072;-80
2020/12/14 02:47:54;;;;;;;18.98;12.10;;;;;;;3.69;100.00;100313.19;5264230;28;20042;-84
2020/12/14 02:50:24;;;;;;;18.25;11.52;;;;;;;3.67;100.00;100304.59;5264150;28;20035;-79
2020/12/14 02:52:55;;;;;;;16.38;11.00;;;;;;;3.59;100.00;100303.81;5263673;28;20043;-79
2020/12/14 02:55:26;;;;;;;18.52;11.85;;;;;;;3.56;100.00;100290.06;5264357;28;20405;-83
2020/12/14 02:57:56;;;;;;;17.52;11.50;;;;;;;3.54;100.00;100280.66;5264371;28;20028;-81
2020/12/14 03:00:26;;;;;;;17.58;11.43;;;;;;;3.57;100.00;100276.28;5263293;28;20111;-82
2020/12/14 03:02:57;;;;;;;16.50;11.50;;;;;;;3.57;100.00;100272.88;5263106;28;20020;-80
2020/12/14 03:05:28;;;;;;;21.52;11.02;;;;;;;3.56;100.00;100269.41;5264669;28;20027;-79
2020/12/14 03:07:58;;;;;;;17.27;11.27;;;;;;;3.51;100.00;100270.38;5264448;28;20051;-78
2020/12/14 03:10:28;;;;;;;18.92;10.85;;;;;;;3.47;100.00;100264.38;5263961;28;20105;-79
2020/12/14 03:12:59;;;;;;;16.23;10.65;;;;;;;3.52;100.00;100261.75;5262402;28;20016;-80
2020/12/14 03:15:29;;;;;;;15.52;10.25;;;;;;;3.51;100.00;100265.19;5254937;28;20437;-79
2020/12/14 03:17:59;;;;;;;16.30;10.60;;;;;;;3.50;100.00;100242.84;5264864;28;20034;-78
2020/12/14 03:20:29;;;;;;;17.90;11.10;;;;;;;3.48;100.00;100254.88;5266767;28;20024;-78
2020/12/14 03:23:00;;;;;;;15.90;10.70;;;;;;;3.57;100.00;100249.63;5267514;28;20542;-79
2020/12/14 03:25:30;;;;;;;16.83;10.93;;;;;;;3.57;100.00;100240.13;5268489;28;20432;-78
2020/12/14 03:28:00;;;;;;;16.85;10.60;;;;;;;3.65;100.00;100244.31;5268134;28;20030;-83
2020/12/14 03:30:30;;;;;;;15.95;10.63;;;;;;;3.66;100.00;100245.19;5267561;28;20136;-81
2020/12/14 03:33:01;;;;;;;14.95;10.02;;;;;;;3.66;100.00;100245.19;5268058;28;20038;-81
2020/12/14 03:35:31;;;;;;;14.75;10.40;;;;;;;3.66;100.00;100238.31;5267960;28;20043;-80
2020/12/14 03:38:01;;;;;;;15.45;10.38;;;;;;;3.62;100.00;100243.53;5268062;28;20067;-80
2020/12/14 03:40:31;;;;;;;15.10;10.20;;;;;;;3.51;100.00;100237.63;5267745;28;20385;-79
2020/12/14 03:43:02;;;;;;;17.98;9.88;;;;;;;3.45;100.00;100235.13;5266450;28;20036;-82
2020/12/14 03:45:33;;;;;;;16.75;10.85;;;;;;;3.47;100.00;100237.69;5267392;28;20032;-79
2020/12/14 03:48:03;;;;;;;15.10;10.38;;;;;;;3.51;100.00;100236.78;5266644;28;20478;-81
2020/12/14 03:50:34;;;;;;;17.02;10.75;;;;;;;3.51;100.00;100239.38;5267943;28;20020;-80
2020/12/14 03:53:04;;;;;;;15.88;10.18;;;;;;;3.52;100.00;100236.75;5266912;28;20058;-79
2020/12/14 03:55:35;;;;;;;15.55;9.35;;;;;;;3.50;100.00;100237.66;5267455;28;20118;-80
2020/12/14 03:58:06;;;;;;;15.13;9.95;;;;;;;3.51;100.00;100232.47;5267592;28;20137;-79
2020/12/14 04:00:37;;;;;;;15.80;9.90;;;;;;;3.50;100.00;100223.00;5267365;28;20032;-78
2020/12/14 04:03:08;;;;;;;15.57;9.85;;;;;;;3.58;100.00;100226.38;5258909;28;20036;-80
2020/12/14 04:05:39;;;;;;;14.85;9.95;;;;;;;3.83;100.00;100227.72;5264252;28;20628;-81
2020/12/14 04:08:09;;;;;;;14.55;9.52;;;;;;;3.85;100.00;100228.53;5267623;28;20023;-78
2020/12/14 04:10:39;;;;;;;13.85;9.77;;;;;;;3.86;100.00;100218.19;5267430;28;20075;-80
2020/12/14 04:13:10;;;;;;;15.00;9.10;;;;;;;3.91;100.00;100224.16;5257970;28;20028;-82
2020/12/14 04:15:40;;;;;;;14.02;8.77;;;;;;;3.91;100.00;100225.88;5264268;28;20059;-80
2020/12/14 04:18:10;;;;;;;12.88;8.77;;;;;;;4.00;100.00;100225.75;5266521;28;20130;-78
2020/12/14 04:20:41;;;;;;;13.07;9.27;;;;;;;3.99;100.00;100224.88;5267503;28;20291;-78
2020/12/14 04:23:11;;;;;;;14.98;9.27;;;;;;;3.87;100.00;100219.91;5267153;28;20024;-78
2020/12/14 04:25:41;;;;;;;12.55;8.85;;;;;;;3.76;100.00;100221.78;5266766;28;20028;-78
2020/12/14 04:28:11;;;;;;;14.07;9.57;;;;;;;3.70;100.00;100215.84;5266489;28;20527;-78
2020/12/14 04:30:42;;;;;;;14.10;9.32;;;;;;;3.62;100.00;100218.53;5266167;28;20039;-79
2020/12/14 04:33:12;;;;;;;14.70;10.07;;;;;;;3.67;100.00;100221.94;5266728;28;20063;-79
2020/12/14 04:35:42;;;;;;;15.00;10.15;;;;;;;3.61;100.00;100221.16;5267034;28;20031;-81
2020/12/14 04:38:13;;;;;;;16.00;9.88;;;;;;;3.66;100.00;100220.22;5266281;28;20053;-80
2020/12/14 04:40:43;;;;;;;17.33;10.43;;;;;;;3.68;100.00;100222.75;5259529;28;20383;-78
2020/12/14 04:43:14;;;;;;;17.52;10.85;;;;;;;3.66;100.00;100220.22;5258749;28;20020;-79
2020/12/14 04:45:49;;;;;;;14.50;10.02;;;;;;;3.69;100.00;100220.16;5266737;28;20028;-78
2020/12/14 04:48:19;;;;;;;14.02;9.27;;;;;;;3.64;100.00;100219.34;5265659;28;20049;-79
2020/12/14 04:50:50;;;;;;;15.05;9.50;;;;;;;3.71;100.00;100221.00;5266142;28;20119;-79
2020/12/14 04:53:21;;;;;;;17.25;10.02;;;;;;;3.68;100.00;100205.53;5266574;28;20170;-79
2020/12/14 04:55:51;;;;;;;14.98;10.00;;;;;;;3.73;100.00;100208.91;5266192;28;20110;-81
2020/12/14 04:58:22;;;;;;;13.40;9.38;;;;;;;3.73;100.00;100203.75;5266060;28;20497;-79
2020/12/14 05:00:52;;;;;;;13.60;9.15;;;;;;;3.89;100.00;100196.59;5265960;28;20092;-79
2020/12/14 05:03:22;;;;;;;13.63;8.95;;;;;;;3.87;100.00;100194.06;5266034;28;20028;-79
2020/12/14 05:05:58;;;;;;;15.32;9.50;;;;;;;3.85;100.00;100195.81;5266092;28;20034;-79
2020/12/14 05:08:29;;;;;;;14.07;9.13;;;;;;;3.80;100.00;100197.59;5265902;28;20394;-80
2020/12/14 05:10:59;;;;;;;12.70;8.70;;;;;;;3.85;100.00;100198.41;5264904;28;20050;-79
2020/12/14 05:13:30;;;;;;;13.40;9.23;;;;;;;3.81;100.00;100203.63;5265725;28;20044;-78
2020/12/14 05:16:00;;;;;;;12.90;8.38;;;;;;;3.85;100.00;100198.41;5265986;28;20622;-82
2020/12/14 05:18:30;;;;;;;13.98;8.40;;;;;;;3.89;100.00;100202.66;5265210;28;20057;-80
2020/12/14 05:21:05;;;;;;;14.38;7.95;;;;;;;3.88;100.00;100200.06;5265898;28;20393;-80
2020/12/14 05:23:35;;;;;;;11.30;7.90;;;;;;;4.00;100.00;100197.31;5265584;28;20028;-79
2020/12/14 05:26:07;;;;;;;13.98;8.23;;;;;;;4.03;100.00;100202.44;5263516;28;20038;-79
2020/12/14 05:28:38;;;;;;;12.60;8.05;;;;;;;4.06;100.00;100195.50;5265613;28;20027;-79
2020/12/14 05:31:18;;;;;;;11.52;8.07;;;;;;;4.12;100.00;100200.56;5265330;28;20032;-80
2020/12/14 05:33:49;;;;;;;11.88;8.00;;;;;;;4.11;100.00;100201.44;5265587;28;20034;-82
2020/12/14 05:36:19;;;;;;;11.48;8.07;;;;;;;4.15;100.00;100195.31;5265115;28;20402;-81
2020/12/14 05:38:49;;;;;;;9.90;7.25;;;;;;;4.16;100.00;100188.44;5265404;28;20045;-79
2020/12/14 05:41:21;;;;;;;10.85;7.43;;;;;;;4.24;100.00;100179.69;5265464;28;20119;-80
2020/12/14 05:43:56;;;;;;;10.32;7.35;;;;;;;4.27;100.00;100184.78;5265255;28;20034;-79
2020/12/14 05:46:33;;;;;;;11.80;7.70;;;;;;;4.37;100.00;100190.66;5265478;28;20028;-79
2020/12/14 05:49:06;;;;;;;11.20;7.65;;;;;;;4.34;100.00;100183.84;5265250;28;20032;-82
2020/12/14 05:51:38;;;;;;;11.20;7.75;;;;;;;4.31;100.00;100186.44;5265417;28;20024;-79
2020/12/14 05:54:12;;;;;;;11.65;7.68;;;;;;;4.34;100.00;100181.25;5265398;28;20144;-79
2020/12/14 05:56:44;;;;;;;11.70;8.15;;;;;;;4.34;100.00;100193.31;5265084;28;20020;-79
2020/12/14 05:59:18;;;;;;;9.38;6.57;;;;;;;4.57;100.00;100184.28;5265116;28;20022;-80
2020/12/14 06:01:49;;;;;;;10.45;7.00;;;;;;;4.53;100.00;100181.75;5265200;28;20408;-79
2020/12/14 06:04:20;;;;;;;11.02;6.97;;;;;;;4.52;100.00;100185.22;5263737;28;20046;-78
2020/12/14 06:06:58;;;;;;;10.40;6.82;;;;;;;4.54;100.00;100180.88;5265151;28;20026;-79
2020/12/14 06:09:35;;;;;;;10.25;6.90;;;;;;;4.54;100.00;100174.00;5264580;28;20028;-81
2020/12/14 06:12:11;;;;;;;10.65;6.75;;;;;;;4.52;100.00;100172.28;5264987;28;20024;-79
2020/12/14 06:14:41;;;;;;;9.80;6.53;;;;;;;4.59;100.00;100166.13;5264563;28;20020;-80
2020/12/14 06:17:11;;;;;;;11.60;6.35;;;;;;;4.71;100.00;100166.78;5263867;28;20020;-80
2020/12/14 06:19:43;;;;;;;11.13;6.40;;;;;;;4.72;100.00;100165.00;5264643;28;20019;-80
2020/12/14 06:22:14;;;;;;;8.63;6.00;;;;;;;4.72;100.00;100158.13;5263618;28;20047;-81
2020/12/14 06:24:45;;;;;;;8.93;5.55;;;;;;;4.77;100.00;100161.47;5265029;28;20023;-80
2020/12/14 06:27:16;;;;;;;7.80;5.60;;;;;;;4.80;100.00;100174.34;5264693;28;20082;-79
2020/12/14 06:29:48;;;;;;;9.52;6.20;;;;;;;4.82;100.00;100177.75;5264816;28;20147;-78
2020/12/14 06:32:41;;;;;;;8.43;5.78;;;;;;;4.77;100.00;100173.56;5265140;28;20454;-79
2020/12/14 06:35:16;;;;;;;9.88;6.30;;;;;;;4.64;100.00;100182.44;5264769;28;20399;-78
2020/12/14 06:37:55;;;;;;;8.75;6.25;;;;;;;4.63;100.00;100176.38;5264824;28;20032;-80
2020/12/14 06:40:25;;;;;;;9.93;6.72;;;;;;;4.51;100.00;100171.47;5264502;28;20016;-78
2020/12/14 06:42:56;;;;;;;8.32;6.40;;;;;;;4.60;100.00;100167.84;5259351;28;20038;-78
2020/12/14 06:45:27;;;;;;;9.50;6.10;;;;;;;4.66;100.00;100167.72;5262452;28;20027;-79
2020/12/14 06:48:00;;;;;;;10.73;6.18;;;;;;;4.59;100.00;100161.81;5264532;28;20425;-78
2020/12/14 06:50:33;;;;;;;9.07;5.50;;;;;;;4.61;100.00;100167.81;5264459;28;20093;-78
2020/12/14 06:53:05;;;;;;;8.05;5.55;;;;;;;4.61;100.00;100165.22;5263811;28;20028;-79
2020/12/14 06:55:47;;;;;;;7.57;5.60;;;;;;;4.63;100.00;100153.09;5266172;28;20480;-80
2020/12/14 06:58:29;;;;;;;7.65;5.75;;;;;;;4.51;100.00;100162.81;5266421;28;20042;-80
2020/12/14 07:01:00;;;;;;;8.85;5.78;;;;;;;4.51;100.00;100174.03;5245945;28;20020;-80
2020/12/14 07:03:35;;;;;;;8.70;6.05;;;;;;;4.45;100.00;100181.06;5245767;28;20063;-79
2020/12/14 07:06:06;;;;;;;9.07;5.87;;;;;;;4.41;100.00;100185.41;5245650;28;20027;-79
2020/12/14 07:08:39;;;;;;;9.20;5.78;;;;;;;4.42;100.00;100184.53;5247328;28;20024;-79
2020/12/14 07:11:14;;;;;;;9.00;5.95;;;;;;;4.38;100.00;100188.06;5246810;28;20103;-78
2020/12/14 07:13:45;;;;;;;10.10;5.97;;;;;;;4.41;100.00;100177.66;5265942;28;20022;-79
2020/12/14 07:16:18;;;;;;;8.05;6.03;;;;;;;4.49;100.00;100188.72;5268563;28;20027;-78
2020/12/14 07:18:53;;;;;;;7.72;5.60;;;;;;;4.45;100.00;100179.31;5267840;28;20028;-79
2020/12/14 07:21:27;;;;;;;8.45;5.72;;;;;;;4.51;100.00;100183.53;5268728;28;20110;-80
2020/12/14 07:23:57;;;;;;;8.77;5.82;;;;;;;4.60;100.00;100189.38;5267411;28;20024;-79
2020/12/14 07:26:28;;;;;;;9.15;6.10;;;;;;;4.53;100.00;100184.34;5267840;28;20592;-80
2020/12/14 07:28:58;;;;;;;7.60;5.82;;;;;;;4.54;100.00;100179.16;5266620;28;20020;-80
2020/12/14 07:31:29;;;;;;;12.23;6.15;;;;;;;4.52;100.00;100186.09;5267689;28;20115;-81
2020/12/14 07:33:59;;;;;;;8.50;6.00;;;;;;;4.32;100.00;100180.38;5266294;28;20080;-79
2020/12/14 07:36:29;;;;;;;8.90;5.68;;;;;;;4.38;100.00;100182.88;5267910;28;20051;-79
2020/12/14 07:39:00;;;;;;;9.00;6.30;;;;;;;4.37;100.00;100186.34;5247975;28;20035;-79
2020/12/14 07:41:30;;;;;;;7.85;6.13;;;;;;;4.45;100.00;100194.81;5259696;28;20021;-78
2020/12/14 07:44:03;;;;;;;8.50;6.10;;;;;;;4.47;100.00;100194.81;5267404;28;20504;-78
2020/12/14 07:46:35;;;;;;;13.57;6.40;;;;;;;4.53;100.00;100189.53;5262820;28;20040;-81
2020/12/14 07:49:13;;;;;;;9.60;6.65;;;;;;;4.55;100.00;100187.75;5265512;28;20671;-80
2020/12/14 07:51:44;;;;;;;9.60;6.47;;;;;;;4.66;100.00;100193.59;5266776;28;20028;-82
2020/12/14 07:54:18;;;;;;;10.63;6.85;;;;;;;4.68;100.00;100192.72;5265641;28;20035;-78
2020/12/14 07:57:06;;;;;;;10.25;6.40;;;;;;;4.66;100.00;100184.09;5266879;28;20012;-79
2020/12/14 07:59:36;;;;;;;9.23;5.65;;;;;;;4.66;100.00;100185.84;5267477;28;20028;-80
2020/12/14 08:02:09;;;;;;;9.07;6.25;;;;;;;4.74;100.00;100192.59;5267257;28;20023;-79
2020/12/14 08:04:39;;;;;;;7.85;5.80;;;;;;;4.71;100.00;100181.44;5263015;28;20028;-78
2020/12/14 08:07:10;;;;;;;10.90;5.53;;;;;;;4.88;100.00;100174.19;5267007;28;20396;-78
2020/12/14 08:09:45;;;;;;;8.15;5.85;;;;;;;4.96;100.00;100178.34;5265789;28;20131;-79
2020/12/14 08:12:16;;;;;;;6.35;4.70;;;;;;;5.07;100.00;100167.78;5266425;28;20028;-78
2020/12/14 08:14:47;;;;;;;8.45;5.30;;;;;;;5.14;100.00;100175.41;5266183;28;20482;-80
2020/12/14 08:17:17;;;;;;;7.68;4.68;;;;;;;5.27;100.00;100176.00;5267054;28;20110;-78
2020/12/14 08:19:47;;;;;;;6.82;4.90;;;;;;;5.30;100.00;100166.44;5260940;28;20026;-78
2020/12/14 08:22:19;;;;;;;6.40;4.72;;;;;;;5.19;100.00;100160.59;5263923;28;20059;-79
2020/12/14 08:24:55;;;;;;;8.45;4.75;;;;;;;5.22;100.00;100157.97;5265791;28;20494;-78
2020/12/14 08:27:47;;;;;;;7.63;5.05;;;;;;;5.17;100.00;100149.44;5266886;28;20521;-80
2020/12/14 08:30:20;;;;;;;9.90;5.45;;;;;;;5.25;100.00;100155.31;5267226;28;20028;-79
2020/12/14 08:33:11;;;;;;;8.63;5.32;;;;;;;5.37;100.00;100164.56;5266903;28;20073;-81
2020/12/14 08:35:44;;;;;;;7.22;4.78;;;;;;;5.37;100.00;100168.03;5266979;28;20031;-79
2020/12/14 08:38:23;;;;;;;8.07;4.72;;;;;;;5.33;100.00;100170.69;5267077;28;20103;-79
2020/12/14 08:40:57;;;;;;;6.53;4.60;;;;;;;5.29;100.00;100172.50;5266233;28;20389;-80
2020/12/14 08:43:28;;;;;;;6.75;3.90;;;;;;;5.50;100.00;100153.88;5266663;28;20031;-80
2020/12/14 08:46:14;;;;;;;7.45;3.88;;;;;;;5.53;100.00;100161.59;5266703;28;20041;-79
2020/12/14 08:48:46;;;;;;;5.57;3.58;;;;;;;5.63;100.00;100157.94;5250788;28;20032;-78
2020/12/14 08:51:32;;;;;;;7.10;3.70;;;;;;;5.81;100.00;100157.53;5266468;28;20607;-79
2020/12/14 08:54:17;;;;;;;4.57;3.00;;;;;;;6.02;100.00;100152.69;5260977;28;20472;-79
2020/12/14 08:56:47;;;;;;;4.47;2.85;;;;;;;6.09;100.00;100150.81;5248050;28;20065;-80
2020/12/14 08:59:19;;;;;;;3.70;2.20;;;;;;;6.12;100.00;100159.34;5265009;28;20432;-80
2020/12/14 09:02:08;;;;;;;3.80;2.30;;;;;;;6.22;100.00;100149.63;5266012;28;20044;-79
2020/12/14 09:04:40;;;;;;;4.15;2.28;;;;;;;6.21;100.00;100142.72;5265722;28;20628;-78
2020/12/14 09:07:21;;;;;;;6.68;2.65;;;;;;;6.29;100.00;100148.59;5257250;28;20032;-79
2020/12/14 09:09:53;;;;;;;5.10;2.70;;;;;;;6.49;100.00;100149.78;5260018;28;20020;-80
2020/12/14 09:12:26;;;;;;;4.38;2.72;;;;;;;6.52;100.00;100159.22;5257182;28;20074;-80
2020/12/14 09:15:03;;;;;;;4.93;2.67;;;;;;;6.51;100.00;100155.78;5256928;28;20531;-79
2020/12/14 09:17:34;;;;;;;6.13;2.80;;;;;;;6.60;100.00;100165.91;5260779;28;20042;-79
2020/12/14 09:20:09;;;;;;;4.43;2.08;;;;;;;6.75;100.00;100162.91;5244295;28;20025;-78
2020/12/14 09:22:40;;;;;;;4.18;1.40;;;;;;;6.95;100.00;100162.38;5244794;28;20031;-79
2020/12/14 09:25:10;;;;;;;4.55;1.40;;;;;;;7.22;100.00;100160.69;5263784;28;20032;-79
2020/12/14 09:27:40;;;;;;;1.50;1.00;;;;;;;7.26;99.93;100168.44;5265516;28;20051;-79
2020/12/14 09:30:10;;;;;;;2.83;1.23;;;;;;;7.47;99.49;100171.22;5256953;28;20024;-80
2020/12/14 09:32:41;;;;;;;3.38;1.00;;;;;;;7.56;99.59;100166.59;5263698;28;20081;-79
2020/12/14 09:35:11;;;;;;;4.13;1.10;;;;;;;7.72;99.29;100160.03;5265822;28;20545;-79
2020/12/14 09:37:42;;;;;;;3.40;1.10;;;;;;;7.76;97.92;100161.69;5259007;28;20028;-80
2020/12/14 09:40:12;;;;;;;3.88;1.42;;;;;;;7.81;98.25;100162.38;5263534;28;20107;-79
2020/12/14 09:42:43;;;;;;;4.00;1.25;;;;;;;8.04;98.83;100159.91;5261313;28;20505;-79
2020/12/14 09:45:14;;;;;;;4.88;1.33;;;;;;;8.14;97.65;100150.91;5262814;28;20743;-79
2020/12/14 09:47:44;;;;;;;4.38;1.30;;;;;;;8.39;97.51;100149.22;5260072;28;20040;-80
2020/12/14 09:50:15;;;;;;;4.18;1.42;;;;;;;8.66;97.65;100147.41;5257030;28;20047;-79
2020/12/14 09:52:45;;;;;;;6.22;1.30;;;;;;;8.90;95.50;100143.97;5245907;28;20025;-79
2020/12/14 09:55:15;;;;;;;3.13;1.02;;;;;;;9.04;94.65;100141.72;5253942;28;20735;-81
2020/12/14 09:57:45;;;;;;;3.08;1.10;;;;;;;9.05;93.51;100139.03;5262207;28;20028;-79
2020/12/14 10:00:16;;;;;;;2.58;0.95;;;;;;;9.04;93.42;100139.94;5265318;28;20056;-80
2020/12/14 10:02:46;;;;;;;2.05;1.00;;;;;;;9.01;92.50;100142.69;5264773;28;20520;-79
2020/12/14 10:05:16;;;;;;;4.63;0.95;;;;;;;9.00;94.05;100135.75;5254781;28;20028;-79
2020/12/14 10:07:46;;;;;;;2.60;0.80;;;;;;;8.88;93.63;100141.41;5246459;28;20020;-79
2020/12/14 10:10:17;;;;;;;2.63;1.13;;;;;;;8.75;92.70;100141.91;5248537;28;20020;-79
2020/12/14 10:12:47;;;;;;;2.75;0.80;;;;;;;8.61;91.77;100150.22;5259117;28;20019;-78
2020/12/14 10:15:17;;;;;;;2.55;0.88;;;;;;;8.48;94.56;100148.91;5264659;28;20024;-79
2020/12/14 10:17:48;;;;;;;5.03;0.82;;;;;;;8.46;93.93;100149.84;5264033;28;20039;-79
2020/12/14 10:20:18;;;;;;;2.13;0.75;;;;;;;8.52;93.96;100147.06;5261140;28;20059;-80
2020/12/14 10:22:48;;;;;;;1.92;0.90;;;;;;;8.58;94.57;100145.06;5264746;28;20051;-81
2020/12/14 10:25:19;;;;;;;1.55;0.80;;;;;;;8.76;94.51;100136.63;5261607;28;20033;-80
2020/12/14 10:27:50;;;;;;;3.58;0.95;;;;;;;8.85;92.88;100133.69;5254995;28;20020;-78
2020/12/14 10:30:20;;;;;;;3.80;0.90;;;;;;;8.96;91.98;100134.19;5251677;28;20103;-80
2020/12/14 10:32:50;;;;;;;2.05;0.70;;;;;;;9.16;92.17;100126.47;5243342;28;20642;-80
2020/12/14 10:35:21;;;;;;;3.60;1.00;;;;;;;9.24;90.26;100125.28;5244182;28;20024;-79
2020/12/14 10:37:51;;;;;;;2.72;0.80;;;;;;;9.29;90.59;100123.34;5243627;28;20028;-81
2020/12/14 10:40:25;;;;;;;1.80;0.77;;;;;;;9.30;91.75;100119.84;5244065;28;20028;-79
2020/12/14 10:42:56;;;;;;;2.60;0.77;;;;;;;9.30;91.38;100119.00;5250112;28;20115;-79
2020/12/14 10:45:26;;;;;;;3.70;0.90;;;;;;;9.39;91.02;100129.06;5264430;28;20106;-79
2020/12/14 10:47:56;;;;;;;1.65;0.70;;;;;;;9.51;91.76;100119.00;5264807;28;20115;-80
2020/12/14 10:50:27;;;;;;;3.25;0.70;;;;;;;9.58;89.99;100133.53;5264703;28;20035;-79
2020/12/14 10:52:57;;;;;;;4.65;1.08;;;;;;;9.66;90.14;100131.47;5265125;28;20019;-79
2020/12/14 10:55:27;;;;;;;1.30;0.70;;;;;;;9.73;89.93;100130.34;5262567;28;20051;-83
2020/12/14 10:57:58;;;;;;;2.25;0.82;;;;;;;9.76;89.30;100129.34;5264605;28;20076;-82
2020/12/14 11:00:28;;;;;;;2.38;0.70;;;;;;;9.76;90.35;100129.34;5264235;28;20024;-79
2020/12/14 11:02:59;;;;;;;2.40;0.70;;;;;;;9.71;90.22;100128.69;5264000;28;20028;-80
2020/12/14 11:05:29;;;;;;;3.38;1.00;;;;;;;9.86;93.10;100141.13;5258178;28;20028;-81
2020/12/14 11:08:00;;;;;;;5.10;0.98;;;;;;;9.82;89.07;100132.56;5264199;28;20028;-81
2020/12/14 11:10:30;;;;;;;4.45;0.70;;;;;;;9.82;91.77;100135.16;5263686;28;20016;-80
2020/12/14 11:13:00;;;;;;;1.70;0.60;;;;;;;9.84;88.44;100132.50;5263602;28;20497;-79
2020/12/14 11:15:31;;;;;;;1.92;0.88;;;;;;;9.83;87.76;100136.03;5264552;28;20028;-79
2020/12/14 11:18:01;;;;;;;1.80;0.60;;;;;;;9.68;90.02;100142.69;5248961;28;20020;-80
2020/12/14 11:20:31;;;;;;;2.63;0.88;;;;;;;9.70;88.86;100138.28;5262556;28;20027;-81
2020/12/14 11:23:02;;;;;;;3.28;0.80;;;;;;;9.61;90.53;100135.16;5264215;28;20032;-80
2020/12/14 11:25:32;;;;;;;2.03;0.70;;;;;;;9.49;90.77;100133.88;5264072;28;20020;-79
2020/12/14 11:28:02;;;;;;;1.73;0.60;;;;;;;9.44;91.33;100135.81;5261914;28;20593;-81
2020/12/14 11:30:33;;;;;;;2.97;0.80;;;;;;;9.46;93.76;100130.56;5262650;28;20035;-82
2020/12/14 11:33:03;;;;;;;2.50;0.80;;;;;;;9.27;92.28;100129.50;5259813;28;20077;-82
2020/12/14 11:35:33;;;;;;;3.85;0.63;;;;;;;9.28;92.94;100116.44;5256727;28;20020;-79
2020/12/14 11:38:03;;;;;;;1.90;0.90;;;;;;;9.29;93.66;100112.09;5253533;28;20048;-81
2020/12/14 11:40:34;;;;;;;1.50;0.60;;;;;;;9.23;93.94;100104.47;5259089;28;20602;-81